sensor_id;sensor_type;location;lat;lon;timestamp;pressure;altitude;pressure_sealevel;temperature;humidity
75536;BME280;64119;52.070;20.804;2022-10-16T00:01:25;100463.96;;;15.14;69.93
75536;BME280;64119;52.070;20.804;2022-10-16T00:03:55;100469.84;;;15.14;69.61
75536;BME280;64119;52.070;20.804;2022-10-16T00:06:23;100464.54;;;15.14;69.62
75536;BME280;64119;52.070;20.804;2022-10-16T00:08:51;100460.75;;;15.14;69.44
75536;BME280;64119;52.070;20.804;2022-10-16T00:11:22;100465.77;;;15.17;70.05
75536;BME280;64119;52.070;20.804;2022-10-16T00:13:53;100460.81;;;15.22;70.06
75536;BME280;64119;52.070;20.804;2022-10-16T00:16:22;100463.81;;;15.25;69.59
75536;BME280;64119;52.070;20.804;2022-10-16T00:18:49;100464.17;;;15.25;69.00
75536;BME280;64119;52.070;20.804;2022-10-16T00:21:22;100469.20;;;15.26;68.76
75536;BME280;64119;52.070;20.804;2022-10-16T00:23:56;100467.75;;;15.28;68.26
75536;BME280;64119;52.070;20.804;2022-10-16T00:26:29;100471.95;;;15.27;68.25
75536;BME280;64119;52.070;20.804;2022-10-16T00:28:58;100470.63;;;15.28;67.90
75536;BME280;64119;52.070;20.804;2022-10-16T00:31:26;100470.09;;;15.29;67.68
75536;BME280;64119;52.070;20.804;2022-10-16T00:33:54;100474.62;;;15.27;67.91
75536;BME280;64119;52.070;20.804;2022-10-16T00:36:23;100474.04;;;15.29;67.89
75536;BME280;64119;52.070;20.804;2022-10-16T00:38:53;100478.73;;;15.27;67.87
75536;BME280;64119;52.070;20.804;2022-10-16T00:41:24;100476.86;;;15.25;67.80
75536;BME280;64119;52.070;20.804;2022-10-16T00:43:57;100476.12;;;15.24;67.91
75536;BME280;64119;52.070;20.804;2022-10-16T00:46:35;100473.83;;;15.23;67.80
75536;BME280;64119;52.070;20.804;2022-10-16T00:51:39;100477.59;;;15.20;67.83
75536;BME280;64119;52.070;20.804;2022-10-16T00:54:10;100482.39;;;15.20;67.71
75536;BME280;64119;52.070;20.804;2022-10-16T00:56:39;100477.29;;;15.20;67.87
75536;BME280;64119;52.070;20.804;2022-10-16T00:59:14;100481.37;;;15.21;68.26
75536;BME280;64119;52.070;20.804;2022-10-16T01:01:42;100481.02;;;15.22;68.10
75536;BME280;64119;52.070;20.804;2022-10-16T01:04:10;100477.52;;;15.23;68.00
75536;BME280;64119;52.070;20.804;2022-10-16T01:06:51;100479.37;;;15.22;67.70
75536;BME280;64119;52.070;20.804;2022-10-16T01:12:25;100481.81;;;15.20;67.45
75536;BME280;64119;52.070;20.804;2022-10-16T01:15:01;100483.77;;;15.17;67.56
75536;BME280;64119;52.070;20.804;2022-10-16T01:28:02;100496.40;;;15.02;67.45
75536;BME280;64119;52.070;20.804;2022-10-16T01:30:33;100497.85;;;14.99;67.45
75536;BME280;64119;52.070;20.804;2022-10-16T01:33:08;100503.87;;;14.98;67.56
75536;BME280;64119;52.070;20.804;2022-10-16T01:35:44;100506.95;;;14.95;67.66
75536;BME280;64119;52.070;20.804;2022-10-16T01:38:20;100509.30;;;14.94;67.86
75536;BME280;64119;52.070;20.804;2022-10-16T01:40:58;100508.48;;;14.94;68.21
75536;BME280;64119;52.070;20.804;2022-10-16T01:43:31;100508.42;;;14.97;68.64
75536;BME280;64119;52.070;20.804;2022-10-16T01:46:01;100507.00;;;15.00;68.49
75536;BME280;64119;52.070;20.804;2022-10-16T01:48:29;100505.12;;;14.99;68.33
75536;BME280;64119;52.070;20.804;2022-10-16T01:51:19;100504.83;;;15.00;68.06
75536;BME280;64119;52.070;20.804;2022-10-16T01:53:50;100507.19;;;14.97;68.04
75536;BME280;64119;52.070;20.804;2022-10-16T01:56:21;100504.61;;;14.97;67.90
75536;BME280;64119;52.070;20.804;2022-10-16T01:58:54;100503.21;;;14.95;67.95
75536;BME280;64119;52.070;20.804;2022-10-16T02:01:24;100500.60;;;14.92;68.11
75536;BME280;64119;52.070;20.804;2022-10-16T02:03:57;100499.04;;;14.89;68.08
75536;BME280;64119;52.070;20.804;2022-10-16T02:06:26;100496.27;;;14.86;68.04
75536;BME280;64119;52.070;20.804;2022-10-16T02:08:53;100497.77;;;14.85;68.16
75536;BME280;64119;52.070;20.804;2022-10-16T02:11:21;100494.73;;;14.82;68.21
75536;BME280;64119;52.070;20.804;2022-10-16T02:13:53;100497.20;;;14.80;68.23
75536;BME280;64119;52.070;20.804;2022-10-16T02:16:23;100493.64;;;14.77;68.30
75536;BME280;64119;52.070;20.804;2022-10-16T02:18:59;100498.73;;;14.78;68.80
75536;BME280;64119;52.070;20.804;2022-10-16T02:21:40;100499.63;;;14.78;69.35
75536;BME280;64119;52.070;20.804;2022-10-16T02:24:21;100498.89;;;14.81;69.05
75536;BME280;64119;52.070;20.804;2022-10-16T02:26:58;100496.25;;;14.81;68.93
75536;BME280;64119;52.070;20.804;2022-10-16T02:29:27;100498.15;;;14.78;68.85
75536;BME280;64119;52.070;20.804;2022-10-16T02:32:00;100504.36;;;14.76;68.67
75536;BME280;64119;52.070;20.804;2022-10-16T02:34:30;100506.08;;;14.70;68.76
75536;BME280;64119;52.070;20.804;2022-10-16T02:37:00;100506.06;;;14.62;68.80
75536;BME280;64119;52.070;20.804;2022-10-16T02:39:29;100511.67;;;14.57;69.01
75536;BME280;64119;52.070;20.804;2022-10-16T02:41:57;100509.91;;;14.55;69.13
75536;BME280;64119;52.070;20.804;2022-10-16T02:44:25;100510.49;;;14.52;69.12
75536;BME280;64119;52.070;20.804;2022-10-16T02:46:52;100516.05;;;14.48;69.21
75536;BME280;64119;52.070;20.804;2022-10-16T02:49:20;100518.52;;;14.44;69.32
75536;BME280;64119;52.070;20.804;2022-10-16T02:51:47;100518.81;;;14.44;69.64
75536;BME280;64119;52.070;20.804;2022-10-16T02:54:15;100519.89;;;14.46;70.31
75536;BME280;64119;52.070;20.804;2022-10-16T02:56:42;100518.55;;;14.47;70.26
75536;BME280;64119;52.070;20.804;2022-10-16T02:59:10;100518.44;;;14.50;70.12
75536;BME280;64119;52.070;20.804;2022-10-16T03:01:37;100522.08;;;14.49;69.97
75536;BME280;64119;52.070;20.804;2022-10-16T03:04:05;100524.98;;;14.46;69.93
75536;BME280;64119;52.070;20.804;2022-10-16T03:06:33;100530.06;;;14.44;69.80
75536;BME280;64119;52.070;20.804;2022-10-16T03:09:02;100530.57;;;14.43;69.86
75536;BME280;64119;52.070;20.804;2022-10-16T03:11:29;100527.48;;;14.40;70.11
75536;BME280;64119;52.070;20.804;2022-10-16T03:13:57;100529.01;;;14.36;70.10
75536;BME280;64119;52.070;20.804;2022-10-16T03:16:24;100526.48;;;14.36;70.02
75536;BME280;64119;52.070;20.804;2022-10-16T03:18:52;100531.11;;;14.31;70.32
75536;BME280;64119;52.070;20.804;2022-10-16T03:21:19;100534.98;;;14.33;70.75
75536;BME280;64119;52.070;20.804;2022-10-16T03:23:47;100538.81;;;14.36;71.06
75536;BME280;64119;52.070;20.804;2022-10-16T03:26:15;100536.41;;;14.33;71.14
75536;BME280;64119;52.070;20.804;2022-10-16T03:28:42;100531.81;;;14.33;70.88
75536;BME280;64119;52.070;20.804;2022-10-16T03:31:10;100539.87;;;14.31;70.93
75536;BME280;64119;52.070;20.804;2022-10-16T03:33:38;100539.76;;;14.28;70.91
75536;BME280;64119;52.070;20.804;2022-10-16T03:36:05;100543.05;;;14.26;71.02
75536;BME280;64119;52.070;20.804;2022-10-16T03:38:34;100547.64;;;14.25;70.86
75536;BME280;64119;52.070;20.804;2022-10-16T03:41:01;100547.45;;;14.20;71.05
75536;BME280;64119;52.070;20.804;2022-10-16T03:43:29;100549.27;;;14.16;71.48
75536;BME280;64119;52.070;20.804;2022-10-16T03:45:56;100551.15;;;14.12;71.44
75536;BME280;64119;52.070;20.804;2022-10-16T03:48:24;100552.58;;;14.12;71.81
75536;BME280;64119;52.070;20.804;2022-10-16T03:50:52;100552.53;;;14.13;72.23
75536;BME280;64119;52.070;20.804;2022-10-16T03:53:19;100553.98;;;14.12;72.25
75536;BME280;64119;52.070;20.804;2022-10-16T03:55:47;100550.52;;;14.13;72.21
75536;BME280;64119;52.070;20.804;2022-10-16T03:58:14;100552.38;;;14.13;72.23
75536;BME280;64119;52.070;20.804;2022-10-16T04:00:43;100553.61;;;14.10;72.04
75536;BME280;64119;52.070;20.804;2022-10-16T04:03:11;100554.11;;;14.06;71.85
75536;BME280;64119;52.070;20.804;2022-10-16T04:05:39;100556.81;;;14.01;71.94
75536;BME280;64119;52.070;20.804;2022-10-16T04:08:07;100559.44;;;13.93;72.25
75536;BME280;64119;52.070;20.804;2022-10-16T04:10:35;100556.94;;;13.88;72.84
75536;BME280;64119;52.070;20.804;2022-10-16T04:13:02;100555.30;;;13.84;73.41
75536;BME280;64119;52.070;20.804;2022-10-16T04:15:30;100555.98;;;13.79;73.35
75536;BME280;64119;52.070;20.804;2022-10-16T04:17:57;100564.27;;;13.73;73.27
75536;BME280;64119;52.070;20.804;2022-10-16T04:20:25;100570.42;;;13.67;73.27
75536;BME280;64119;52.070;20.804;2022-10-16T04:22:52;100566.89;;;13.59;73.59
75536;BME280;64119;52.070;20.804;2022-10-16T04:25:20;100575.97;;;13.50;73.51
75536;BME280;64119;52.070;20.804;2022-10-16T04:27:48;100583.00;;;13.39;73.56
75536;BME280;64119;52.070;20.804;2022-10-16T04:30:16;100589.72;;;13.29;73.53
75536;BME280;64119;52.070;20.804;2022-10-16T04:32:48;100589.70;;;13.24;73.95
75536;BME280;64119;52.070;20.804;2022-10-16T04:35:19;100597.30;;;13.19;74.63
75536;BME280;64119;52.070;20.804;2022-10-16T04:37:48;100595.32;;;13.19;74.67
75536;BME280;64119;52.070;20.804;2022-10-16T04:40:16;100590.50;;;13.15;74.52
75536;BME280;64119;52.070;20.804;2022-10-16T04:42:44;100590.26;;;13.06;74.64
75536;BME280;64119;52.070;20.804;2022-10-16T04:45:11;100587.43;;;12.96;74.77
75536;BME280;64119;52.070;20.804;2022-10-16T04:47:43;100588.01;;;12.88;74.86
75536;BME280;64119;52.070;20.804;2022-10-16T04:50:11;100591.45;;;12.79;75.38
75536;BME280;64119;52.070;20.804;2022-10-16T04:52:38;100595.51;;;12.73;75.13
75536;BME280;64119;52.070;20.804;2022-10-16T04:55:06;100599.52;;;12.72;75.21
75536;BME280;64119;52.070;20.804;2022-10-16T04:57:34;100597.88;;;12.72;75.56
75536;BME280;64119;52.070;20.804;2022-10-16T05:00:02;100601.71;;;12.70;75.69
75536;BME280;64119;52.070;20.804;2022-10-16T05:02:30;100610.30;;;12.67;75.86
75536;BME280;64119;52.070;20.804;2022-10-16T05:04:58;100613.39;;;12.62;75.80
75536;BME280;64119;52.070;20.804;2022-10-16T05:07:26;100616.33;;;12.55;75.95
75536;BME280;64119;52.070;20.804;2022-10-16T05:09:54;100619.77;;;12.51;75.79
75536;BME280;64119;52.070;20.804;2022-10-16T05:12:21;100618.44;;;12.46;75.72
75536;BME280;64119;52.070;20.804;2022-10-16T05:14:49;100619.33;;;12.43;75.99
75536;BME280;64119;52.070;20.804;2022-10-16T05:17:17;100618.23;;;12.42;76.43
75536;BME280;64119;52.070;20.804;2022-10-16T05:19:44;100616.84;;;12.41;77.10
75536;BME280;64119;52.070;20.804;2022-10-16T05:22:12;100613.48;;;12.39;76.71
75536;BME280;64119;52.070;20.804;2022-10-16T05:24:39;100615.61;;;12.36;76.57
75536;BME280;64119;52.070;20.804;2022-10-16T05:27:07;100614.77;;;12.32;76.81
75536;BME280;64119;52.070;20.804;2022-10-16T05:29:34;100603.58;;;12.28;76.59
75536;BME280;64119;52.070;20.804;2022-10-16T05:32:02;100604.95;;;12.22;76.50
75536;BME280;64119;52.070;20.804;2022-10-16T05:34:30;100606.60;;;12.18;77.33
75536;BME280;64119;52.070;20.804;2022-10-16T05:36:58;100606.13;;;12.15;77.89
75536;BME280;64119;52.070;20.804;2022-10-16T05:39:25;100611.73;;;12.16;78.24
75536;BME280;64119;52.070;20.804;2022-10-16T05:41:53;100617.83;;;12.20;78.11
75536;BME280;64119;52.070;20.804;2022-10-16T05:44:20;100616.27;;;12.24;77.90
75536;BME280;64119;52.070;20.804;2022-10-16T05:46:48;100623.77;;;12.26;77.66
75536;BME280;64119;52.070;20.804;2022-10-16T05:49:16;100623.85;;;12.26;77.63
75536;BME280;64119;52.070;20.804;2022-10-16T05:51:44;100620.55;;;12.28;77.32
75536;BME280;64119;52.070;20.804;2022-10-16T05:54:11;100617.77;;;12.31;77.78
75536;BME280;64119;52.070;20.804;2022-10-16T05:56:39;100623.00;;;12.39;78.10
75536;BME280;64119;52.070;20.804;2022-10-16T05:59:06;100623.16;;;12.48;77.97
75536;BME280;64119;52.070;20.804;2022-10-16T06:01:34;100624.93;;;12.55;77.96
75536;BME280;64119;52.070;20.804;2022-10-16T06:04:02;100630.06;;;12.58;77.82
75536;BME280;64119;52.070;20.804;2022-10-16T06:06:30;100642.02;;;12.60;77.69
75536;BME280;64119;52.070;20.804;2022-10-16T06:08:58;100640.89;;;12.59;77.11
75536;BME280;64119;52.070;20.804;2022-10-16T06:11:30;100641.86;;;12.60;77.15
75536;BME280;64119;52.070;20.804;2022-10-16T06:14:00;100639.40;;;12.58;77.41
75536;BME280;64119;52.070;20.804;2022-10-16T06:16:35;100642.27;;;12.59;77.78
75536;BME280;64119;52.070;20.804;2022-10-16T06:19:03;100645.66;;;12.65;78.25
75536;BME280;64119;52.070;20.804;2022-10-16T06:21:33;100646.21;;;12.72;77.90
75536;BME280;64119;52.070;20.804;2022-10-16T06:24:01;100650.77;;;12.80;77.99
75536;BME280;64119;52.070;20.804;2022-10-16T06:26:30;100655.14;;;12.92;77.51
75536;BME280;64119;52.070;20.804;2022-10-16T06:28:59;100652.52;;;13.00;77.04
75536;BME280;64119;52.070;20.804;2022-10-16T06:31:28;100646.80;;;13.05;77.03
75536;BME280;64119;52.070;20.804;2022-10-16T06:33:58;100648.95;;;13.10;77.28
75536;BME280;64119;52.070;20.804;2022-10-16T06:36:27;100652.97;;;13.17;76.78
75536;BME280;64119;52.070;20.804;2022-10-16T06:38:54;100653.00;;;13.26;77.31
75536;BME280;64119;52.070;20.804;2022-10-16T06:41:23;100653.55;;;13.40;77.43
75536;BME280;64119;52.070;20.804;2022-10-16T06:43:50;100662.22;;;13.55;77.61
75536;BME280;64119;52.070;20.804;2022-10-16T06:46:22;100662.95;;;13.68;77.31
75536;BME280;64119;52.070;20.804;2022-10-16T06:48:50;100662.53;;;13.82;77.00
75536;BME280;64119;52.070;20.804;2022-10-16T06:51:23;100668.80;;;13.94;76.62
75536;BME280;64119;52.070;20.804;2022-10-16T06:53:53;100669.64;;;14.08;76.26
75536;BME280;64119;52.070;20.804;2022-10-16T06:56:32;100671.83;;;14.19;75.98
75536;BME280;64119;52.070;20.804;2022-10-16T06:59:00;100671.58;;;14.24;75.84
75536;BME280;64119;52.070;20.804;2022-10-16T07:01:29;100677.55;;;14.29;75.65
75536;BME280;64119;52.070;20.804;2022-10-16T07:03:57;100682.51;;;14.34;75.79
75536;BME280;64119;52.070;20.804;2022-10-16T07:06:25;100683.49;;;14.40;75.95
75536;BME280;64119;52.070;20.804;2022-10-16T07:08:53;100677.25;;;14.47;75.78
75536;BME280;64119;52.070;20.804;2022-10-16T07:11:22;100674.61;;;14.50;75.47
75536;BME280;64119;52.070;20.804;2022-10-16T07:13:51;100678.52;;;14.52;75.28
75536;BME280;64119;52.070;20.804;2022-10-16T07:16:25;100672.27;;;14.53;75.13
75536;BME280;64119;52.070;20.804;2022-10-16T07:19:01;100660.85;;;14.55;74.80
75536;BME280;64119;52.070;20.804;2022-10-16T07:21:31;100661.38;;;14.57;74.92
75536;BME280;64119;52.070;20.804;2022-10-16T07:24:05;100667.98;;;14.91;74.68
75536;BME280;64119;52.070;20.804;2022-10-16T07:26:35;100673.57;;;15.34;73.69
75536;BME280;64119;52.070;20.804;2022-10-16T07:29:03;100674.33;;;15.79;72.37
75536;BME280;64119;52.070;20.804;2022-10-16T07:31:31;100676.64;;;16.19;71.14
75536;BME280;64119;52.070;20.804;2022-10-16T07:34:00;100683.84;;;16.56;70.36
75536;BME280;64119;52.070;20.804;2022-10-16T07:36:27;100682.59;;;16.99;69.28
75536;BME280;64119;52.070;20.804;2022-10-16T07:38:55;100686.53;;;17.31;68.50
75536;BME280;64119;52.070;20.804;2022-10-16T07:41:26;100686.69;;;17.54;67.29
75536;BME280;64119;52.070;20.804;2022-10-16T07:43:55;100689.09;;;17.70;66.83
75536;BME280;64119;52.070;20.804;2022-10-16T07:46:23;100689.26;;;17.89;66.05
75536;BME280;64119;52.070;20.804;2022-10-16T07:48:51;100693.20;;;18.20;65.07
75536;BME280;64119;52.070;20.804;2022-10-16T07:51:21;100691.11;;;18.42;64.03
75536;BME280;64119;52.070;20.804;2022-10-16T07:53:49;100684.46;;;18.64;63.69
75536;BME280;64119;52.070;20.804;2022-10-16T07:56:18;100685.94;;;18.88;63.31
75536;BME280;64119;52.070;20.804;2022-10-16T07:58:46;100693.91;;;18.95;63.16
75536;BME280;64119;52.070;20.804;2022-10-16T08:01:15;100693.91;;;19.25;63.08
75536;BME280;64119;52.070;20.804;2022-10-16T08:03:44;100694.82;;;19.59;61.78
75536;BME280;64119;52.070;20.804;2022-10-16T08:06:12;100697.33;;;19.77;61.26
75536;BME280;64119;52.070;20.804;2022-10-16T08:08:40;100696.14;;;20.01;60.24
75536;BME280;64119;52.070;20.804;2022-10-16T08:11:08;100701.67;;;20.23;59.40
75536;BME280;64119;52.070;20.804;2022-10-16T08:13:36;100700.33;;;20.61;59.29
75536;BME280;64119;52.070;20.804;2022-10-16T08:16:05;100705.23;;;20.85;58.47
75536;BME280;64119;52.070;20.804;2022-10-16T08:18:37;100705.56;;;20.89;57.65
75536;BME280;64119;52.070;20.804;2022-10-16T08:21:06;100705.11;;;20.84;57.34
75536;BME280;64119;52.070;20.804;2022-10-16T08:23:34;100713.95;;;20.60;57.77
75536;BME280;64119;52.070;20.804;2022-10-16T08:26:05;100717.39;;;20.42;58.05
75536;BME280;64119;52.070;20.804;2022-10-16T08:28:33;100718.11;;;20.37;58.41
75536;BME280;64119;52.070;20.804;2022-10-16T08:31:08;100719.76;;;20.33;58.40
75536;BME280;64119;52.070;20.804;2022-10-16T08:33:37;100722.38;;;20.23;58.57
75536;BME280;64119;52.070;20.804;2022-10-16T08:36:05;100721.92;;;20.46;58.22
75536;BME280;64119;52.070;20.804;2022-10-16T08:38:34;100711.97;;;20.88;57.95
75536;BME280;64119;52.070;20.804;2022-10-16T08:41:26;100716.98;;;21.26;57.32
75536;BME280;64119;52.070;20.804;2022-10-16T08:49:17;100728.44;;;21.05;57.48
75536;BME280;64119;52.070;20.804;2022-10-16T08:51:45;100728.62;;;20.98;57.32
75536;BME280;64119;52.070;20.804;2022-10-16T08:54:21;100733.27;;;20.84;57.10
75536;BME280;64119;52.070;20.804;2022-10-16T08:56:50;100739.70;;;20.61;58.07
75536;BME280;64119;52.070;20.804;2022-10-16T08:59:18;100742.59;;;20.56;58.24
75536;BME280;64119;52.070;20.804;2022-10-16T09:01:50;100750.12;;;20.46;58.03
75536;BME280;64119;52.070;20.804;2022-10-16T09:10:26;100757.55;;;20.33;57.75
75536;BME280;64119;52.070;20.804;2022-10-16T09:19:37;100740.05;;;19.80;58.86
75536;BME280;64119;52.070;20.804;2022-10-16T09:22:14;100736.89;;;19.59;59.21
75536;BME280;64119;52.070;20.804;2022-10-16T09:24:42;100734.48;;;19.47;59.69
75536;BME280;64119;52.070;20.804;2022-10-16T09:27:11;100732.41;;;19.52;59.67
75536;BME280;64119;52.070;20.804;2022-10-16T09:29:41;100736.48;;;19.62;59.54
75536;BME280;64119;52.070;20.804;2022-10-16T09:32:18;100737.89;;;19.73;59.17
75536;BME280;64119;52.070;20.804;2022-10-16T09:34:48;100737.06;;;19.94;59.27
75536;BME280;64119;52.070;20.804;2022-10-16T09:37:19;100737.77;;;20.37;58.29
75536;BME280;64119;52.070;20.804;2022-10-16T09:39:50;100736.74;;;20.82;57.33
75536;BME280;64119;52.070;20.804;2022-10-16T09:44:50;100736.04;;;21.28;56.09
75536;BME280;64119;52.070;20.804;2022-10-16T09:47:26;100734.02;;;21.27;56.48
75536;BME280;64119;52.070;20.804;2022-10-16T09:52:24;100740.65;;;21.07;56.20
75536;BME280;64119;52.070;20.804;2022-10-16T09:55:15;100738.10;;;20.97;56.26
75536;BME280;64119;52.070;20.804;2022-10-16T09:57:53;100737.86;;;20.84;56.68
75536;BME280;64119;52.070;20.804;2022-10-16T10:00:23;100738.38;;;20.90;56.38
75536;BME280;64119;52.070;20.804;2022-10-16T10:02:52;100736.93;;;21.19;55.89
75536;BME280;64119;52.070;20.804;2022-10-16T10:05:27;100733.11;;;21.56;55.00
75536;BME280;64119;52.070;20.804;2022-10-16T10:07:58;100734.13;;;21.90;54.39
75536;BME280;64119;52.070;20.804;2022-10-16T10:10:31;100736.54;;;22.21;53.62
75536;BME280;64119;52.070;20.804;2022-10-16T10:12:59;100735.34;;;22.32;53.73
75536;BME280;64119;52.070;20.804;2022-10-16T10:15:32;100741.56;;;22.17;53.41
75536;BME280;64119;52.070;20.804;2022-10-16T10:18:00;100749.13;;;22.11;52.84
75536;BME280;64119;52.070;20.804;2022-10-16T10:20:34;100741.10;;;21.94;52.68
75536;BME280;64119;52.070;20.804;2022-10-16T10:23:23;100738.37;;;21.96;52.70
75536;BME280;64119;52.070;20.804;2022-10-16T10:28:42;100731.88;;;22.15;52.59
75536;BME280;64119;52.070;20.804;2022-10-16T10:36:32;100730.13;;;22.77;51.59
75536;BME280;64119;52.070;20.804;2022-10-16T10:39:08;100731.86;;;22.64;51.83
75536;BME280;64119;52.070;20.804;2022-10-16T10:50:14;100729.86;;;21.46;54.16
75536;BME280;64119;52.070;20.804;2022-10-16T10:52:58;100727.20;;;21.29;54.31
75536;BME280;64119;52.070;20.804;2022-10-16T11:06:55;100716.65;;;21.91;53.61
75536;BME280;64119;52.070;20.804;2022-10-16T11:09:28;100710.02;;;21.81;53.94
75536;BME280;64119;52.070;20.804;2022-10-16T11:12:05;100712.75;;;21.85;54.03
75536;BME280;64119;52.070;20.804;2022-10-16T11:14:38;100716.31;;;21.73;54.15
75536;BME280;64119;52.070;20.804;2022-10-16T11:17:13;100718.17;;;21.70;54.26
75536;BME280;64119;52.070;20.804;2022-10-16T11:19:54;100721.90;;;21.80;54.34
75536;BME280;64119;52.070;20.804;2022-10-16T11:22:45;100725.94;;;21.91;54.03
75536;BME280;64119;52.070;20.804;2022-10-16T11:25:41;100729.16;;;21.85;53.91
75536;BME280;64119;52.070;20.804;2022-10-16T11:28:14;100727.71;;;21.83;54.05
75536;BME280;64119;52.070;20.804;2022-10-16T11:30:49;100720.86;;;21.78;54.14
75536;BME280;64119;52.070;20.804;2022-10-16T11:36:06;100720.10;;;21.42;54.46
75536;BME280;64119;52.070;20.804;2022-10-16T11:41:39;100733.23;;;21.36;54.94
75536;BME280;64119;52.070;20.804;2022-10-16T11:44:16;100727.32;;;21.68;54.51
75536;BME280;64119;52.070;20.804;2022-10-16T11:49:55;100720.21;;;21.69;54.42
75536;BME280;64119;52.070;20.804;2022-10-16T11:52:26;100712.96;;;21.63;54.43
75536;BME280;64119;52.070;20.804;2022-10-16T11:57:40;100703.58;;;21.51;55.29
75536;BME280;64119;52.070;20.804;2022-10-16T12:00:21;100698.25;;;21.44;55.26
75536;BME280;64119;52.070;20.804;2022-10-16T12:08:40;100713.85;;;21.70;54.72
75536;BME280;64119;52.070;20.804;2022-10-16T12:13:47;100724.00;;;21.65;54.62
75536;BME280;64119;52.070;20.804;2022-10-16T12:18:44;100724.93;;;21.33;55.10
75536;BME280;64119;52.070;20.804;2022-10-16T12:21:14;100726.26;;;21.27;55.36
75536;BME280;64119;52.070;20.804;2022-10-16T12:23:49;100723.95;;;21.28;55.52
75536;BME280;64119;52.070;20.804;2022-10-16T12:26:25;100720.52;;;21.26;55.56
75536;BME280;64119;52.070;20.804;2022-10-16T12:28:54;100715.61;;;21.17;55.58
75536;BME280;64119;52.070;20.804;2022-10-16T12:31:22;100712.98;;;21.06;55.95
75536;BME280;64119;52.070;20.804;2022-10-16T12:33:59;100708.00;;;21.09;56.06
75536;BME280;64119;52.070;20.804;2022-10-16T12:36:32;100717.07;;;21.14;56.31
75536;BME280;64119;52.070;20.804;2022-10-16T12:39:01;100715.23;;;21.14;56.08
75536;BME280;64119;52.070;20.804;2022-10-16T12:41:34;100716.70;;;21.11;56.26
75536;BME280;64119;52.070;20.804;2022-10-16T12:44:02;100717.48;;;21.21;56.44
75536;BME280;64119;52.070;20.804;2022-10-16T12:51:42;100731.50;;;21.22;56.65
75536;BME280;64119;52.070;20.804;2022-10-16T12:54:14;100731.19;;;21.20;56.45
75536;BME280;64119;52.070;20.804;2022-10-16T13:09:26;100729.95;;;20.69;58.17
75536;BME280;64119;52.070;20.804;2022-10-16T13:11:49;100725.08;;;20.70;58.12
75536;BME280;64119;52.070;20.804;2022-10-16T13:28:02;100751.77;;;20.54;58.96
75536;BME280;64119;52.070;20.804;2022-10-16T13:30:32;100754.73;;;20.48;58.95
75536;BME280;64119;52.070;20.804;2022-10-16T13:33:04;100754.56;;;20.44;59.12
75536;BME280;64119;52.070;20.804;2022-10-16T13:35:35;100762.23;;;20.42;59.18
75536;BME280;64119;52.070;20.804;2022-10-16T13:38:15;100764.81;;;20.39;59.43
75536;BME280;64119;52.070;20.804;2022-10-16T13:43:47;100763.80;;;20.34;59.70
75536;BME280;64119;52.070;20.804;2022-10-16T13:46:21;100761.70;;;20.31;59.82
75536;BME280;64119;52.070;20.804;2022-10-16T13:49:04;100756.85;;;20.28;60.20
75536;BME280;64119;52.070;20.804;2022-10-16T13:51:33;100759.27;;;20.25;60.24
75536;BME280;64119;52.070;20.804;2022-10-16T13:54:00;100756.84;;;20.22;60.20
75536;BME280;64119;52.070;20.804;2022-10-16T13:56:30;100754.20;;;20.17;60.47
75536;BME280;64119;52.070;20.804;2022-10-16T13:59:04;100757.49;;;20.15;60.69
75536;BME280;64119;52.070;20.804;2022-10-16T14:01:40;100760.13;;;20.12;61.00
75536;BME280;64119;52.070;20.804;2022-10-16T14:04:12;100755.64;;;20.08;60.81
75536;BME280;64119;52.070;20.804;2022-10-16T14:06:43;100752.50;;;20.04;60.97
75536;BME280;64119;52.070;20.804;2022-10-16T14:09:24;100748.27;;;20.03;61.29
75536;BME280;64119;52.070;20.804;2022-10-16T14:11:58;100747.70;;;20.01;61.26
75536;BME280;64119;52.070;20.804;2022-10-16T14:14:34;100754.83;;;19.96;61.43
75536;BME280;64119;52.070;20.804;2022-10-16T14:17:03;100759.20;;;19.91;61.79
75536;BME280;64119;52.070;20.804;2022-10-16T14:19:31;100762.28;;;19.86;62.08
75536;BME280;64119;52.070;20.804;2022-10-16T14:22:01;100762.41;;;19.84;61.94
75536;BME280;64119;52.070;20.804;2022-10-16T14:26:57;100769.32;;;19.81;62.09
75536;BME280;64119;52.070;20.804;2022-10-16T14:29:27;100774.71;;;19.78;62.40
75536;BME280;64119;52.070;20.804;2022-10-16T14:32:00;100774.77;;;19.78;62.27
75536;BME280;64119;52.070;20.804;2022-10-16T14:34:33;100776.30;;;19.74;62.91
75536;BME280;64119;52.070;20.804;2022-10-16T14:37:09;100778.37;;;19.72;62.59
75536;BME280;64119;52.070;20.804;2022-10-16T14:39:40;100776.80;;;19.70;62.72
75536;BME280;64119;52.070;20.804;2022-10-16T14:42:15;100772.64;;;19.66;62.90
75536;BME280;64119;52.070;20.804;2022-10-16T14:44:45;100775.75;;;19.63;63.07
75536;BME280;64119;52.070;20.804;2022-10-16T14:47:16;100779.02;;;19.61;63.37
75536;BME280;64119;52.070;20.804;2022-10-16T14:49:49;100778.55;;;19.58;63.25
75536;BME280;64119;52.070;20.804;2022-10-16T14:52:17;100774.63;;;19.56;63.08
75536;BME280;64119;52.070;20.804;2022-10-16T14:54:48;100773.53;;;19.53;63.27
75536;BME280;64119;52.070;20.804;2022-10-16T14:57:22;100779.52;;;19.48;63.58
75536;BME280;64119;52.070;20.804;2022-10-16T14:59:51;100785.02;;;19.46;63.95
75536;BME280;64119;52.070;20.804;2022-10-16T15:02:30;100780.75;;;19.45;64.79
75536;BME280;64119;52.070;20.804;2022-10-16T15:05:10;100776.77;;;19.43;64.60